sensor_id;sensor_type;location;lat;lon;timestamp;temperature;humidity
5711;DHT22;61291;52.524;13.422;2023-03-11T00:02:14;2.30;99.90
5711;DHT22;61291;52.524;13.422;2023-03-11T00:04:40;2.40;99.90
5711;DHT22;61291;52.524;13.422;2023-03-11T00:07:07;2.40;99.90
5711;DHT22;61291;52.524;13.422;2023-03-11T00:09:33;2.40;99.90
5711;DHT22;61291;52.524;13.422;2023-03-11T00:11:58;2.40;99.90
5711;DHT22;61291;52.524;13.422;2023-03-11T00:14:24;2.40;99.90
5711;DHT22;61291;52.524;13.422;2023-03-11T00:16:49;2.40;99.90
5711;DHT22;61291;52.524;13.422;2023-03-11T00:19:15;2.40;99.90
5711;DHT22;61291;52.524;13.422;2023-03-11T00:21:40;2.30;99.90
5711;DHT22;61291;52.524;13.422;2023-03-11T00:24:09;2.20;99.90
5711;DHT22;61291;52.524;13.422;2023-03-11T00:26:35;2.10;99.90
5711;DHT22;61291;52.524;13.422;2023-03-11T00:29:01;2.00;99.90
5711;DHT22;61291;52.524;13.422;2023-03-11T00:31:26;2.00;99.90
5711;DHT22;61291;52.524;13.422;2023-03-11T00:33:53;2.00;99.90
5711;DHT22;61291;52.524;13.422;2023-03-11T00:36:26;1.90;99.90
5711;DHT22;61291;52.524;13.422;2023-03-11T00:38:53;1.90;99.90
5711;DHT22;61291;52.524;13.422;2023-03-11T00:41:19;1.80;99.90
5711;DHT22;61291;52.524;13.422;2023-03-11T00:43:44;1.80;99.90
5711;DHT22;61291;52.524;13.422;2023-03-11T00:46:09;1.80;99.90
5711;DHT22;61291;52.524;13.422;2023-03-11T00:48:35;1.80;99.90
5711;DHT22;61291;52.524;13.422;2023-03-11T00:51:00;1.80;99.90
5711;DHT22;61291;52.524;13.422;2023-03-11T00:53:26;1.70;99.90
5711;DHT22;61291;52.524;13.422;2023-03-11T00:55:51;1.70;99.90
5711;DHT22;61291;52.524;13.422;2023-03-11T00:58:17;1.70;99.90
5711;DHT22;61291;52.524;13.422;2023-03-11T01:00:43;1.70;99.90
5711;DHT22;61291;52.524;13.422;2023-03-11T01:03:08;1.70;99.90
5711;DHT22;61291;52.524;13.422;2023-03-11T01:05:34;1.70;99.90
5711;DHT22;61291;52.524;13.422;2023-03-11T01:08:00;1.70;99.90
5711;DHT22;61291;52.524;13.422;2023-03-11T01:10:27;1.60;99.90
5711;DHT22;61291;52.524;13.422;2023-03-11T01:12:52;1.60;99.90
5711;DHT22;61291;52.524;13.422;2023-03-11T01:15:22;1.70;99.90
5711;DHT22;61291;52.524;13.422;2023-03-11T01:17:47;1.70;99.90
5711;DHT22;61291;52.524;13.422;2023-03-11T01:20:13;1.70;99.90
5711;DHT22;61291;52.524;13.422;2023-03-11T01:22:39;1.60;99.90
5711;DHT22;61291;52.524;13.422;2023-03-11T01:25:05;1.60;99.90
5711;DHT22;61291;52.524;13.422;2023-03-11T01:27:30;1.60;99.90
5711;DHT22;61291;52.524;13.422;2023-03-11T01:29:56;1.60;99.90
5711;DHT22;61291;52.524;13.422;2023-03-11T01:32:22;1.60;99.90
5711;DHT22;61291;52.524;13.422;2023-03-11T01:34:47;1.60;99.90
5711;DHT22;61291;52.524;13.422;2023-03-11T01:37:13;1.60;99.90
5711;DHT22;61291;52.524;13.422;2023-03-11T01:39:39;1.60;99.90
5711;DHT22;61291;52.524;13.422;2023-03-11T01:42:04;1.60;99.90
5711;DHT22;61291;52.524;13.422;2023-03-11T01:44:30;1.60;99.90
5711;DHT22;61291;52.524;13.422;2023-03-11T01:49:24;1.60;99.90
5711;DHT22;61291;52.524;13.422;2023-03-11T01:51:54;1.60;99.90
5711;DHT22;61291;52.524;13.422;2023-03-11T01:54:30;1.60;99.90
5711;DHT22;61291;52.524;13.422;2023-03-11T01:56:57;1.60;99.90
5711;DHT22;61291;52.524;13.422;2023-03-11T01:59:27;1.70;99.90
5711;DHT22;61291;52.524;13.422;2023-03-11T02:02:13;1.70;99.90
5711;DHT22;61291;52.524;13.422;2023-03-11T02:04:41;1.60;99.90
5711;DHT22;61291;52.524;13.422;2023-03-11T02:07:07;1.60;99.90
5711;DHT22;61291;52.524;13.422;2023-03-11T02:09:33;1.60;99.90
5711;DHT22;61291;52.524;13.422;2023-03-11T02:11:59;1.70;99.90
5711;DHT22;61291;52.524;13.422;2023-03-11T02:14:27;1.80;99.90
5711;DHT22;61291;52.524;13.422;2023-03-11T02:16:54;1.70;99.90
5711;DHT22;61291;52.524;13.422;2023-03-11T02:22:10;1.70;99.90
5711;DHT22;61291;52.524;13.422;2023-03-11T02:24:59;1.70;99.90
5711;DHT22;61291;52.524;13.422;2023-03-11T02:27:27;1.70;99.90
5711;DHT22;61291;52.524;13.422;2023-03-11T02:29:55;1.70;99.90
5711;DHT22;61291;52.524;13.422;2023-03-11T02:32:23;1.70;99.90
5711;DHT22;61291;52.524;13.422;2023-03-11T02:34:48;1.70;99.90
5711;DHT22;61291;52.524;13.422;2023-03-11T02:37:16;1.60;99.90
5711;DHT22;61291;52.524;13.422;2023-03-11T02:39:50;1.60;99.90
5711;DHT22;61291;52.524;13.422;2023-03-11T02:42:23;1.60;99.90
5711;DHT22;61291;52.524;13.422;2023-03-11T02:45:09;1.70;99.90
5711;DHT22;61291;52.524;13.422;2023-03-11T02:47:37;1.70;99.90
5711;DHT22;61291;52.524;13.422;2023-03-11T02:50:04;1.70;99.90
5711;DHT22;61291;52.524;13.422;2023-03-11T02:52:32;1.70;99.90
5711;DHT22;61291;52.524;13.422;2023-03-11T02:54:58;1.70;99.90
5711;DHT22;61291;52.524;13.422;2023-03-11T02:57:23;1.70;99.90
5711;DHT22;61291;52.524;13.422;2023-03-11T02:59:49;1.70;99.90
5711;DHT22;61291;52.524;13.422;2023-03-11T03:02:15;1.70;99.90
5711;DHT22;61291;52.524;13.422;2023-03-11T03:04:40;1.70;99.90
5711;DHT22;61291;52.524;13.422;2023-03-11T03:07:06;1.70;99.90
5711;DHT22;61291;52.524;13.422;2023-03-11T03:09:31;1.70;99.90
5711;DHT22;61291;52.524;13.422;2023-03-11T03:11:57;1.70;99.90
5711;DHT22;61291;52.524;13.422;2023-03-11T03:14:23;1.70;99.90
5711;DHT22;61291;52.524;13.422;2023-03-11T03:16:48;1.80;99.90
5711;DHT22;61291;52.524;13.422;2023-03-11T03:19:14;1.70;99.90
5711;DHT22;61291;52.524;13.422;2023-03-11T03:21:39;1.70;99.90
5711;DHT22;61291;52.524;13.422;2023-03-11T03:24:05;1.70;99.90
5711;DHT22;61291;52.524;13.422;2023-03-11T03:26:31;1.70;99.90
5711;DHT22;61291;52.524;13.422;2023-03-11T03:28:56;1.70;99.90
5711;DHT22;61291;52.524;13.422;2023-03-11T03:31:22;1.70;99.90
5711;DHT22;61291;52.524;13.422;2023-03-11T03:33:47;1.70;99.90
5711;DHT22;61291;52.524;13.422;2023-03-11T03:36:14;1.70;99.90
5711;DHT22;61291;52.524;13.422;2023-03-11T03:38:39;1.60;99.90
5711;DHT22;61291;52.524;13.422;2023-03-11T03:41:05;1.70;99.90
5711;DHT22;61291;52.524;13.422;2023-03-11T03:43:31;1.60;99.90
5711;DHT22;61291;52.524;13.422;2023-03-11T03:45:58;1.60;99.90
5711;DHT22;61291;52.524;13.422;2023-03-11T03:48:24;1.60;99.90
5711;DHT22;61291;52.524;13.422;2023-03-11T03:50:50;1.70;99.90
5711;DHT22;61291;52.524;13.422;2023-03-11T03:53:15;1.60;99.90
5711;DHT22;61291;52.524;13.422;2023-03-11T03:55:41;1.70;99.90
5711;DHT22;61291;52.524;13.422;2023-03-11T03:58:06;1.60;99.90
5711;DHT22;61291;52.524;13.422;2023-03-11T04:00:33;1.70;99.90
5711;DHT22;61291;52.524;13.422;2023-03-11T04:02:59;1.60;99.90
5711;DHT22;61291;52.524;13.422;2023-03-11T04:05:26;1.70;99.90
5711;DHT22;61291;52.524;13.422;2023-03-11T04:07:52;1.70;99.90
5711;DHT22;61291;52.524;13.422;2023-03-11T04:10:18;1.70;99.90
5711;DHT22;61291;52.524;13.422;2023-03-11T04:12:43;1.70;99.90
5711;DHT22;61291;52.524;13.422;2023-03-11T04:15:09;1.60;99.90
5711;DHT22;61291;52.524;13.422;2023-03-11T04:17:35;1.70;99.90
5711;DHT22;61291;52.524;13.422;2023-03-11T04:20:01;1.60;99.90
5711;DHT22;61291;52.524;13.422;2023-03-11T04:22:27;1.60;99.90
5711;DHT22;61291;52.524;13.422;2023-03-11T04:24:52;1.70;99.90
5711;DHT22;61291;52.524;13.422;2023-03-11T04:27:18;1.70;99.90
5711;DHT22;61291;52.524;13.422;2023-03-11T04:29:43;1.70;99.90
5711;DHT22;61291;52.524;13.422;2023-03-11T04:32:09;1.70;99.90
5711;DHT22;61291;52.524;13.422;2023-03-11T04:34:34;1.60;99.90
5711;DHT22;61291;52.524;13.422;2023-03-11T04:37:00;1.70;99.90
5711;DHT22;61291;52.524;13.422;2023-03-11T04:39:25;1.70;99.90
5711;DHT22;61291;52.524;13.422;2023-03-11T04:41:51;1.80;99.90
5711;DHT22;61291;52.524;13.422;2023-03-11T04:44:16;1.70;99.90
5711;DHT22;61291;52.524;13.422;2023-03-11T04:46:42;1.70;99.90
5711;DHT22;61291;52.524;13.422;2023-03-11T04:49:08;1.70;99.90
5711;DHT22;61291;52.524;13.422;2023-03-11T04:51:34;1.70;99.90
5711;DHT22;61291;52.524;13.422;2023-03-11T04:54:00;1.70;99.90
5711;DHT22;61291;52.524;13.422;2023-03-11T04:56:25;1.80;99.90
5711;DHT22;61291;52.524;13.422;2023-03-11T04:58:51;1.70;99.90
5711;DHT22;61291;52.524;13.422;2023-03-11T05:01:16;1.80;99.90
5711;DHT22;61291;52.524;13.422;2023-03-11T05:03:42;1.80;99.90
5711;DHT22;61291;52.524;13.422;2023-03-11T05:06:07;1.70;99.90
5711;DHT22;61291;52.524;13.422;2023-03-11T05:08:32;1.80;99.90
5711;DHT22;61291;52.524;13.422;2023-03-11T05:10:58;1.70;99.90
5711;DHT22;61291;52.524;13.422;2023-03-11T05:13:23;1.80;99.90
5711;DHT22;61291;52.524;13.422;2023-03-11T05:15:49;1.70;99.90
5711;DHT22;61291;52.524;13.422;2023-03-11T05:18:14;1.70;99.90
5711;DHT22;61291;52.524;13.422;2023-03-11T05:20:40;1.80;99.90
5711;DHT22;61291;52.524;13.422;2023-03-11T05:23:05;1.80;99.90
5711;DHT22;61291;52.524;13.422;2023-03-11T05:25:31;1.80;99.90
5711;DHT22;61291;52.524;13.422;2023-03-11T05:27:57;1.80;99.90
5711;DHT22;61291;52.524;13.422;2023-03-11T05:30:22;1.90;99.90
5711;DHT22;61291;52.524;13.422;2023-03-11T05:32:48;1.90;99.90
5711;DHT22;61291;52.524;13.422;2023-03-11T05:35:13;1.80;99.90
5711;DHT22;61291;52.524;13.422;2023-03-11T05:37:39;1.90;99.90
5711;DHT22;61291;52.524;13.422;2023-03-11T05:40:06;1.80;99.90
5711;DHT22;61291;52.524;13.422;2023-03-11T05:42:33;1.90;99.90
5711;DHT22;61291;52.524;13.422;2023-03-11T05:44:58;1.90;99.90
5711;DHT22;61291;52.524;13.422;2023-03-11T05:47:24;1.90;99.90
5711;DHT22;61291;52.524;13.422;2023-03-11T05:49:49;1.90;99.90
5711;DHT22;61291;52.524;13.422;2023-03-11T05:52:15;1.90;99.90
5711;DHT22;61291;52.524;13.422;2023-03-11T05:54:41;2.00;99.90
5711;DHT22;61291;52.524;13.422;2023-03-11T05:57:06;2.00;99.90
5711;DHT22;61291;52.524;13.422;2023-03-11T05:59:32;2.00;99.90
5711;DHT22;61291;52.524;13.422;2023-03-11T06:01:59;2.10;99.90
5711;DHT22;61291;52.524;13.422;2023-03-11T06:04:25;2.10;99.90
5711;DHT22;61291;52.524;13.422;2023-03-11T06:06:51;2.10;99.90
5711;DHT22;61291;52.524;13.422;2023-03-11T06:09:17;2.10;99.90
5711;DHT22;61291;52.524;13.422;2023-03-11T06:11:42;2.10;99.90
5711;DHT22;61291;52.524;13.422;2023-03-11T06:14:12;2.00;99.90
5711;DHT22;61291;52.524;13.422;2023-03-11T06:16:39;1.90;99.90
5711;DHT22;61291;52.524;13.422;2023-03-11T06:19:04;1.90;99.90
5711;DHT22;61291;52.524;13.422;2023-03-11T06:21:30;1.80;99.90
5711;DHT22;61291;52.524;13.422;2023-03-11T06:23:56;1.90;99.90
5711;DHT22;61291;52.524;13.422;2023-03-11T06:26:22;1.90;99.90
5711;DHT22;61291;52.524;13.422;2023-03-11T06:28:49;1.90;99.90
5711;DHT22;61291;52.524;13.422;2023-03-11T06:31:23;2.00;99.90
5711;DHT22;61291;52.524;13.422;2023-03-11T06:33:50;2.00;99.90
5711;DHT22;61291;52.524;13.422;2023-03-11T06:36:17;2.00;99.90
5711;DHT22;61291;52.524;13.422;2023-03-11T06:38:43;2.10;99.90
5711;DHT22;61291;52.524;13.422;2023-03-11T06:41:10;2.10;99.90
5711;DHT22;61291;52.524;13.422;2023-03-11T06:43:36;2.10;99.90
5711;DHT22;61291;52.524;13.422;2023-03-11T06:46:08;2.10;99.90
5711;DHT22;61291;52.524;13.422;2023-03-11T06:48:34;2.10;99.90
5711;DHT22;61291;52.524;13.422;2023-03-11T06:51:00;2.20;99.90
5711;DHT22;61291;52.524;13.422;2023-03-11T06:53:26;2.20;99.90
5711;DHT22;61291;52.524;13.422;2023-03-11T06:56:07;2.20;99.90
5711;DHT22;61291;52.524;13.422;2023-03-11T06:58:35;2.40;99.90
5711;DHT22;61291;52.524;13.422;2023-03-11T07:01:10;2.50;99.90
5711;DHT22;61291;52.524;13.422;2023-03-11T07:03:35;2.50;99.90
5711;DHT22;61291;52.524;13.422;2023-03-11T07:06:01;2.50;99.90
5711;DHT22;61291;52.524;13.422;2023-03-11T07:08:27;2.50;99.90
5711;DHT22;61291;52.524;13.422;2023-03-11T07:11:04;2.50;99.90
5711;DHT22;61291;52.524;13.422;2023-03-11T07:13:31;2.50;99.90
5711;DHT22;61291;52.524;13.422;2023-03-11T07:16:05;2.50;99.90
5711;DHT22;61291;52.524;13.422;2023-03-11T07:18:31;2.50;99.90
5711;DHT22;61291;52.524;13.422;2023-03-11T07:20:56;2.60;99.90
5711;DHT22;61291;52.524;13.422;2023-03-11T07:23:22;2.60;99.90
5711;DHT22;61291;52.524;13.422;2023-03-11T07:25:48;2.80;99.90
5711;DHT22;61291;52.524;13.422;2023-03-11T07:28:14;2.70;99.90
5711;DHT22;61291;52.524;13.422;2023-03-11T07:30:39;2.70;99.90
5711;DHT22;61291;52.524;13.422;2023-03-11T07:33:05;2.80;99.90
5711;DHT22;61291;52.524;13.422;2023-03-11T07:35:30;3.00;99.90
5711;DHT22;61291;52.524;13.422;2023-03-11T07:37:56;3.00;99.90
5711;DHT22;61291;52.524;13.422;2023-03-11T07:40:21;2.90;99.90
5711;DHT22;61291;52.524;13.422;2023-03-11T07:42:47;3.10;99.90
5711;DHT22;61291;52.524;13.422;2023-03-11T07:45:12;3.50;99.90
5711;DHT22;61291;52.524;13.422;2023-03-11T07:47:38;3.50;99.90
5711;DHT22;61291;52.524;13.422;2023-03-11T07:50:03;3.20;99.90
5711;DHT22;61291;52.524;13.422;2023-03-11T07:52:31;3.40;99.90
5711;DHT22;61291;52.524;13.422;2023-03-11T07:54:57;3.50;99.90
5711;DHT22;61291;52.524;13.422;2023-03-11T07:57:22;3.60;99.90
5711;DHT22;61291;52.524;13.422;2023-03-11T07:59:48;3.90;99.90
5711;DHT22;61291;52.524;13.422;2023-03-11T08:02:13;3.90;99.90
5711;DHT22;61291;52.524;13.422;2023-03-11T08:04:39;3.70;99.90
5711;DHT22;61291;52.524;13.422;2023-03-11T08:07:05;3.50;99.90
5711;DHT22;61291;52.524;13.422;2023-03-11T08:09:30;3.90;99.90
5711;DHT22;61291;52.524;13.422;2023-03-11T08:11:56;4.20;99.90
5711;DHT22;61291;52.524;13.422;2023-03-11T08:14:21;4.20;99.90
5711;DHT22;61291;52.524;13.422;2023-03-11T08:16:47;4.10;99.90
5711;DHT22;61291;52.524;13.422;2023-03-11T08:19:13;3.80;99.90
5711;DHT22;61291;52.524;13.422;2023-03-11T08:21:39;3.80;99.90
5711;DHT22;61291;52.524;13.422;2023-03-11T08:24:05;4.00;99.90
5711;DHT22;61291;52.524;13.422;2023-03-11T08:26:30;4.40;99.90
5711;DHT22;61291;52.524;13.422;2023-03-11T08:28:57;4.60;99.90
5711;DHT22;61291;52.524;13.422;2023-03-11T08:31:26;4.00;99.90
5711;DHT22;61291;52.524;13.422;2023-03-11T08:33:55;4.30;99.90
5711;DHT22;61291;52.524;13.422;2023-03-11T08:36:20;5.10;99.90
5711;DHT22;61291;52.524;13.422;2023-03-11T08:38:46;5.20;99.90
5711;DHT22;61291;52.524;13.422;2023-03-11T08:41:12;4.90;99.90
5711;DHT22;61291;52.524;13.422;2023-03-11T08:43:38;4.90;99.90
5711;DHT22;61291;52.524;13.422;2023-03-11T08:46:04;4.90;99.90
5711;DHT22;61291;52.524;13.422;2023-03-11T08:48:33;4.80;99.90
5711;DHT22;61291;52.524;13.422;2023-03-11T08:51:00;5.10;99.90
5711;DHT22;61291;52.524;13.422;2023-03-11T08:53:27;5.40;99.90
5711;DHT22;61291;52.524;13.422;2023-03-11T08:55:53;5.40;99.90
5711;DHT22;61291;52.524;13.422;2023-03-11T08:58:19;5.20;99.90
5711;DHT22;61291;52.524;13.422;2023-03-11T09:00:45;5.10;99.90
5711;DHT22;61291;52.524;13.422;2023-03-11T09:03:11;5.40;99.90
5711;DHT22;61291;52.524;13.422;2023-03-11T09:05:37;5.10;99.90
5711;DHT22;61291;52.524;13.422;2023-03-11T09:08:03;5.00;99.90
5711;DHT22;61291;52.524;13.422;2023-03-11T09:10:28;4.80;99.90
5711;DHT22;61291;52.524;13.422;2023-03-11T09:12:54;4.90;99.90
5711;DHT22;61291;52.524;13.422;2023-03-11T09:15:19;5.00;99.90
5711;DHT22;61291;52.524;13.422;2023-03-11T09:17:45;4.60;99.90
5711;DHT22;61291;52.524;13.422;2023-03-11T09:20:12;4.90;99.90
5711;DHT22;61291;52.524;13.422;2023-03-11T09:22:38;5.00;99.90
5711;DHT22;61291;52.524;13.422;2023-03-11T09:25:03;5.90;99.90
5711;DHT22;61291;52.524;13.422;2023-03-11T09:27:29;5.90;99.90
5711;DHT22;61291;52.524;13.422;2023-03-11T09:29:54;6.80;99.90
5711;DHT22;61291;52.524;13.422;2023-03-11T09:32:20;6.70;99.90
5711;DHT22;61291;52.524;13.422;2023-03-11T09:34:45;6.10;99.90
5711;DHT22;61291;52.524;13.422;2023-03-11T09:37:12;6.50;99.90
5711;DHT22;61291;52.524;13.422;2023-03-11T09:39:37;6.70;99.90
5711;DHT22;61291;52.524;13.422;2023-03-11T09:42:31;7.10;99.90
5711;DHT22;61291;52.524;13.422;2023-03-11T09:45:18;6.50;99.90
5711;DHT22;61291;52.524;13.422;2023-03-11T09:47:56;5.50;99.90
5711;DHT22;61291;52.524;13.422;2023-03-11T09:53:18;6.10;99.90
5711;DHT22;61291;52.524;13.422;2023-03-11T09:55:57;4.90;99.90
5711;DHT22;61291;52.524;13.422;2023-03-11T09:58:36;5.10;99.90
5711;DHT22;61291;52.524;13.422;2023-03-11T10:01:14;5.50;99.90
5711;DHT22;61291;52.524;13.422;2023-03-11T10:03:42;6.80;99.90
5711;DHT22;61291;52.524;13.422;2023-03-11T10:06:14;7.00;99.90
5711;DHT22;61291;52.524;13.422;2023-03-11T10:14:16;6.80;99.90
5711;DHT22;61291;52.524;13.422;2023-03-11T10:26:05;7.00;99.90
5711;DHT22;61291;52.524;13.422;2023-03-11T10:28:56;7.40;99.90
5711;DHT22;61291;52.524;13.422;2023-03-11T10:31:26;8.20;99.90
5711;DHT22;61291;52.524;13.422;2023-03-11T10:37:17;8.50;99.90
5711;DHT22;61291;52.524;13.422;2023-03-11T10:39:46;9.10;99.90
5711;DHT22;61291;52.524;13.422;2023-03-11T10:42:16;8.80;99.90
5711;DHT22;61291;52.524;13.422;2023-03-11T10:44:44;8.20;99.90
5711;DHT22;61291;52.524;13.422;2023-03-11T10:47:16;8.30;99.90
5711;DHT22;61291;52.524;13.422;2023-03-11T10:49:42;8.70;99.90
5711;DHT22;61291;52.524;13.422;2023-03-11T10:52:07;7.10;99.90
5711;DHT22;61291;52.524;13.422;2023-03-11T10:54:36;6.80;99.90
5711;DHT22;61291;52.524;13.422;2023-03-11T10:57:17;6.40;99.90
5711;DHT22;61291;52.524;13.422;2023-03-11T10:59:55;6.20;99.90
5711;DHT22;61291;52.524;13.422;2023-03-11T11:02:37;7.10;99.90
5711;DHT22;61291;52.524;13.422;2023-03-11T11:07:49;6.70;99.90
5711;DHT22;61291;52.524;13.422;2023-03-11T11:10:26;7.20;99.90
5711;DHT22;61291;52.524;13.422;2023-03-11T11:15:39;7.10;99.90
5711;DHT22;61291;52.524;13.422;2023-03-11T11:18:15;7.50;99.90
5711;DHT22;61291;52.524;13.422;2023-03-11T11:21:07;7.30;99.90
5711;DHT22;61291;52.524;13.422;2023-03-11T11:23:45;6.80;99.90
5711;DHT22;61291;52.524;13.422;2023-03-11T11:26:23;7.40;99.90
5711;DHT22;61291;52.524;13.422;2023-03-11T11:31:33;8.60;99.90
5711;DHT22;61291;52.524;13.422;2023-03-11T11:33:59;8.70;99.90
5711;DHT22;61291;52.524;13.422;2023-03-11T11:36:28;9.10;99.90
5711;DHT22;61291;52.524;13.422;2023-03-11T11:38:55;8.90;99.90
5711;DHT22;61291;52.524;13.422;2023-03-11T11:41:23;8.80;99.90
5711;DHT22;61291;52.524;13.422;2023-03-11T11:44:09;8.20;99.90
5711;DHT22;61291;52.524;13.422;2023-03-11T11:46:41;8.70;99.90
5711;DHT22;61291;52.524;13.422;2023-03-11T11:49:18;8.70;99.90
5711;DHT22;61291;52.524;13.422;2023-03-11T11:51:51;8.90;99.90
5711;DHT22;61291;52.524;13.422;2023-03-11T11:54:30;9.10;99.90
5711;DHT22;61291;52.524;13.422;2023-03-11T11:56:59;8.90;99.90
5711;DHT22;61291;52.524;13.422;2023-03-11T11:59:26;8.70;99.90
5711;DHT22;61291;52.524;13.422;2023-03-11T12:10:33;8.00;99.90
5711;DHT22;61291;52.524;13.422;2023-03-11T12:13:17;8.00;99.90
5711;DHT22;61291;52.524;13.422;2023-03-11T12:15:52;8.00;99.90
5711;DHT22;61291;52.524;13.422;2023-03-11T12:18:25;8.60;99.90
5711;DHT22;61291;52.524;13.422;2023-03-11T12:20:53;8.60;99.90
5711;DHT22;61291;52.524;13.422;2023-03-11T12:31:15;7.50;99.90
5711;DHT22;61291;52.524;13.422;2023-03-11T12:33:48;7.10;99.90
5711;DHT22;61291;52.524;13.422;2023-03-11T12:36:35;7.10;99.90
5711;DHT22;61291;52.524;13.422;2023-03-11T12:39:04;7.50;99.90
5711;DHT22;61291;52.524;13.422;2023-03-11T12:41:38;7.40;99.90
5711;DHT22;61291;52.524;13.422;2023-03-11T12:44:26;7.10;99.90
5711;DHT22;61291;52.524;13.422;2023-03-11T12:49:23;7.30;99.90
5711;DHT22;61291;52.524;13.422;2023-03-11T12:54:35;7.20;99.90
5711;DHT22;61291;52.524;13.422;2023-03-11T13:00:13;7.70;99.90
5711;DHT22;61291;52.524;13.422;2023-03-11T13:03:12;7.90;99.90
5711;DHT22;61291;52.524;13.422;2023-03-11T13:06:02;7.90;99.90
5711;DHT22;61291;52.524;13.422;2023-03-11T13:08:44;8.00;99.90
5711;DHT22;61291;52.524;13.422;2023-03-11T13:16:39;6.80;99.90
5711;DHT22;61291;52.524;13.422;2023-03-11T13:19:30;6.50;99.90
5711;DHT22;61291;52.524;13.422;2023-03-11T13:21:59;6.30;99.90
5711;DHT22;61291;52.524;13.422;2023-03-11T13:27:02;6.80;99.90
5711;DHT22;61291;52.524;13.422;2023-03-11T13:33:10;6.60;99.90
5711;DHT22;61291;52.524;13.422;2023-03-11T13:41:20;5.80;99.90
5711;DHT22;61291;52.524;13.422;2023-03-11T13:43:48;6.00;99.90
5711;DHT22;61291;52.524;13.422;2023-03-11T13:46:30;6.30;99.90
5711;DHT22;61291;52.524;13.422;2023-03-11T13:49:22;6.60;99.90
5711;DHT22;61291;52.524;13.422;2023-03-11T13:51:49;6.70;99.90
5711;DHT22;61291;52.524;13.422;2023-03-11T13:56:47;6.90;99.90
5711;DHT22;61291;52.524;13.422;2023-03-11T13:59:32;7.10;99.90
5711;DHT22;61291;52.524;13.422;2023-03-11T14:02:10;7.00;99.90
5711;DHT22;61291;52.524;13.422;2023-03-11T14:04:41;6.90;99.90
5711;DHT22;61291;52.524;13.422;2023-03-11T14:07:24;5.90;99.90
5711;DHT22;61291;52.524;13.422;2023-03-11T14:09:50;5.40;99.90
5711;DHT22;61291;52.524;13.422;2023-03-11T14:12:15;5.70;99.90
5711;DHT22;61291;52.524;13.422;2023-03-11T14:14:50;5.70;99.90
5711;DHT22;61291;52.524;13.422;2023-03-11T14:17:19;6.00;99.90
5711;DHT22;61291;52.524;13.422;2023-03-11T14:20:18;6.60;99.90
5711;DHT22;61291;52.524;13.422;2023-03-11T14:22:48;6.90;99.90
5711;DHT22;61291;52.524;13.422;2023-03-11T14:25:18;6.60;99.90
5711;DHT22;61291;52.524;13.422;2023-03-11T14:27:50;5.90;99.90
5711;DHT22;61291;52.524;13.422;2023-03-11T14:30:25;5.60;99.90
5711;DHT22;61291;52.524;13.422;2023-03-11T14:33:05;5.40;99.90
5711;DHT22;61291;52.524;13.422;2023-03-11T14:35:32;5.30;99.90
5711;DHT22;61291;52.524;13.422;2023-03-11T14:37:58;4.90;99.90
5711;DHT22;61291;52.524;13.422;2023-03-11T14:40:32;4.70;99.90
5711;DHT22;61291;52.524;13.422;2023-03-11T14:43:04;4.40;99.90
5711;DHT22;61291;52.524;13.422;2023-03-11T14:45:37;4.20;99.90
5711;DHT22;61291;52.524;13.422;2023-03-11T14:48:28;4.00;99.90
5711;DHT22;61291;52.524;13.422;2023-03-11T14:50:58;3.70;99.90
5711;DHT22;61291;52.524;13.422;2023-03-11T14:53:38;3.70;99.90
5711;DHT22;61291;52.524;13.422;2023-03-11T14:56:19;3.80;99.90
5711;DHT22;61291;52.524;13.422;2023-03-11T14:59:00;3.90;99.90
5711;DHT22;61291;52.524;13.422;2023-03-11T15:01:32;3.90;99.90
5711;DHT22;61291;52.524;13.422;2023-03-11T15:04:07;4.00;99.90
5711;DHT22;61291;52.524;13.422;2023-03-11T15:06:34;4.20;99.90
5711;DHT22;61291;52.524;13.422;2023-03-11T15:09:16;4.20;99.90
5711;DHT22;61291;52.524;13.422;2023-03-11T15:11:50;4.20;99.90
5711;DHT22;61291;52.524;13.422;2023-03-11T15:14:33;4.20;99.90
5711;DHT22;61291;52.524;13.422;2023-03-11T15:17:15;4.20;99.90
5711;DHT22;61291;52.524;13.422;2023-03-11T15:19:42;4.20;99.90
5711;DHT22;61291;52.524;13.422;2023-03-11T15:22:30;4.30;99.90
5711;DHT22;61291;52.524;13.422;2023-03-11T15:24:59;4.30;99.90
5711;DHT22;61291;52.524;13.422;2023-03-11T15:27:36;4.40;99.90
5711;DHT22;61291;52.524;13.422;2023-03-11T15:30:26;4.10;99.90
5711;DHT22;61291;52.524;13.422;2023-03-11T15:41:30;3.80;99.90
5711;DHT22;61291;52.524;13.422;2023-03-11T15:43:55;3.70;99.90
5711;DHT22;61291;52.524;13.422;2023-03-11T15:46:26;3.60;99.90
5711;DHT22;61291;52.524;13.422;2023-03-11T15:48:51;3.60;99.90
5711;DHT22;61291;52.524;13.422;2023-03-11T15:51:19;3.60;99.90
5711;DHT22;61291;52.524;13.422;2023-03-11T16:04:15;3.50;99.90
5711;DHT22;61291;52.524;13.422;2023-03-11T16:06:41;3.50;99.90
5711;DHT22;61291;52.524;13.422;2023-03-11T16:09:08;3.40;99.90
5711;DHT22;61291;52.524;13.422;2023-03-11T16:11:34;3.40;99.90
5711;DHT22;61291;52.524;13.422;2023-03-11T16:14:00;3.40;99.90
5711;DHT22;61291;52.524;13.422;2023-03-11T16:16:26;3.40;99.90
5711;DHT22;61291;52.524;13.422;2023-03-11T16:18:51;3.30;99.90
5711;DHT22;61291;52.524;13.422;2023-03-11T16:21:19;3.30;99.90
5711;DHT22;61291;52.524;13.422;2023-03-11T16:23:46;3.30;99.90
5711;DHT22;61291;52.524;13.422;2023-03-11T16:26:13;3.20;99.90
5711;DHT22;61291;52.524;13.422;2023-03-11T16:28:39;3.10;99.90
5711;DHT22;61291;52.524;13.422;2023-03-11T16:31:06;3.00;99.90
5711;DHT22;61291;52.524;13.422;2023-03-11T16:33:35;3.10;99.90
5711;DHT22;61291;52.524;13.422;2023-03-11T16:36:01;3.00;99.90
5711;DHT22;61291;52.524;13.422;2023-03-11T16:38:29;3.00;99.90
5711;DHT22;61291;52.524;13.422;2023-03-11T16:40:59;2.90;99.90
5711;DHT22;61291;52.524;13.422;2023-03-11T16:43:26;2.80;99.90
5711;DHT22;61291;52.524;13.422;2023-03-11T16:45:52;2.80;99.90
5711;DHT22;61291;52.524;13.422;2023-03-11T16:48:19;2.70;99.90
5711;DHT22;61291;52.524;13.422;2023-03-11T16:50:45;2.50;99.90
5711;DHT22;61291;52.524;13.422;2023-03-11T16:53:11;2.40;99.90
5711;DHT22;61291;52.524;13.422;2023-03-11T16:55:38;2.40;99.90
5711;DHT22;61291;52.524;13.422;2023-03-11T16:58:03;2.30;99.90
5711;DHT22;61291;52.524;13.422;2023-03-11T17:00:29;2.10;99.90
5711;DHT22;61291;52.524;13.422;2023-03-11T17:02:54;2.00;99.90
5711;DHT22;61291;52.524;13.422;2023-03-11T17:05:20;1.90;99.90
5711;DHT22;61291;52.524;13.422;2023-03-11T17:07:46;1.80;99.90
5711;DHT22;61291;52.524;13.422;2023-03-11T17:10:11;1.70;99.90
5711;DHT22;61291;52.524;13.422;2023-03-11T17:12:37;1.60;99.90
5711;DHT22;61291;52.524;13.422;2023-03-11T17:15:04;1.60;99.90
5711;DHT22;61291;52.524;13.422;2023-03-11T17:17:30;1.60;99.90
5711;DHT22;61291;52.524;13.422;2023-03-11T17:19:56;1.60;99.90
5711;DHT22;61291;52.524;13.422;2023-03-11T17:22:21;1.60;99.90
5711;DHT22;61291;52.524;13.422;2023-03-11T17:24:46;1.40;99.90
5711;DHT22;61291;52.524;13.422;2023-03-11T17:27:12;1.40;99.90
5711;DHT22;61291;52.524;13.422;2023-03-11T17:29:37;1.40;99.90
5711;DHT22;61291;52.524;13.422;2023-03-11T17:32:03;1.40;99.90
5711;DHT22;61291;52.524;13.422;2023-03-11T17:34:31;1.30;99.90